Time;durP1;ratioP1;P1;durP2;ratioP2;P2;SDS_P1;SDS_P2;PMS_P1;PMS_P2;Temp;Humidity;BMP_temperature;BMP_pressure;BME280_temperature;BME280_humidity;BME280_pressure;Samples;Min_cycle;Max_cycle;Signal;HPM_P1;HPM_P2
2023/03/07 00:00:01;;;;;;;16.93;11.60;;;6.00;99.90;;;;;;5050732;28;20203;-68
2023/03/07 00:02:27;;;;;;;18.17;12.10;;;5.90;99.90;;;;;;5052457;28;20232;-68
2023/03/07 00:04:52;;;;;;;14.87;10.97;;;5.90;99.90;;;;;;5048481;28;20855;-68
2023/03/07 00:07:18;;;;;;;16.70;11.40;;;6.00;99.90;;;;;;5056185;28;20213;-67
2023/03/07 00:09:44;;;;;;;18.00;12.57;;;5.90;99.90;;;;;;5054440;28;20195;-67
2023/03/07 00:12:10;;;;;;;16.07;11.30;;;5.90;99.90;;;;;;5051456;28;20175;-67
2023/03/07 00:14:35;;;;;;;16.77;12.43;;;5.90;99.90;;;;;;5046296;28;20203;-67
2023/03/07 00:17:01;;;;;;;16.90;11.90;;;5.90;99.90;;;;;;5051125;28;20465;-67
2023/03/07 00:19:27;;;;;;;20.53;12.00;;;6.00;99.90;;;;;;5050573;28;20207;-67
2023/03/07 00:21:52;;;;;;;17.07;11.40;;;6.00;99.90;;;;;;5049034;28;20437;-68
2023/03/07 00:24:18;;;;;;;15.97;10.90;;;6.00;99.90;;;;;;5052768;28;20190;-67
2023/03/07 00:26:43;;;;;;;19.00;10.57;;;6.00;99.90;;;;;;5054916;28;20203;-67
2023/03/07 00:29:10;;;;;;;18.13;12.07;;;6.00;99.90;;;;;;5055657;28;20244;-68
2023/03/07 00:31:36;;;;;;;16.80;11.77;;;6.00;99.90;;;;;;5052118;28;20199;-67
2023/03/07 00:34:02;;;;;;;16.77;11.37;;;6.00;99.90;;;;;;5053622;28;20543;-67
2023/03/07 00:36:28;;;;;;;16.67;11.50;;;6.00;99.90;;;;;;5051443;28;21009;-67
2023/03/07 00:38:53;;;;;;;19.90;11.50;;;6.00;99.90;;;;;;5055560;28;20441;-67
2023/03/07 00:41:21;;;;;;;13.87;9.87;;;6.00;99.90;;;;;;5053615;28;20663;-68
2023/03/07 00:43:48;;;;;;;18.00;11.70;;;5.90;99.90;;;;;;5061022;28;20279;-68
2023/03/07 00:46:15;;;;;;;14.20;10.63;;;5.90;99.90;;;;;;5053576;28;20477;-68
2023/03/07 00:48:42;;;;;;;14.63;10.40;;;5.90;99.90;;;;;;5049833;28;20438;-68
2023/03/07 00:51:09;;;;;;;17.23;12.13;;;6.00;99.90;;;;;;5050666;28;20464;-68
2023/03/07 00:53:36;;;;;;;16.13;10.87;;;5.80;99.90;;;;;;5053851;28;20631;-68
2023/03/07 00:56:06;;;;;;;19.40;12.40;;;5.80;99.90;;;;;;5057868;28;20428;-67
2023/03/07 00:58:34;;;;;;;16.63;11.43;;;5.80;99.90;;;;;;5051559;28;20902;-67
2023/03/07 01:01:01;;;;;;;14.97;10.27;;;5.80;99.90;;;;;;5049748;28;20878;-67
2023/03/07 01:03:27;;;;;;;14.30;10.40;;;5.80;99.90;;;;;;5047855;28;20492;-68
2023/03/07 01:05:53;;;;;;;21.60;11.27;;;5.90;99.90;;;;;;5050050;28;20526;-67
2023/03/07 01:08:20;;;;;;;17.50;11.60;;;5.90;99.90;;;;;;5052272;28;20549;-67
2023/03/07 01:10:47;;;;;;;17.90;10.50;;;5.80;99.90;;;;;;5051699;28;20788;-68
2023/03/07 01:13:13;;;;;;;15.40;11.73;;;5.80;99.90;;;;;;5052167;28;20426;-67
2023/03/07 01:15:39;;;;;;;17.97;12.10;;;5.80;99.90;;;;;;5045149;28;20442;-68
2023/03/07 01:18:06;;;;;;;15.23;11.13;;;5.80;99.90;;;;;;5049648;28;20973;-67
2023/03/07 01:20:33;;;;;;;18.87;11.73;;;5.80;99.90;;;;;;5048573;28;20219;-68
2023/03/07 01:22:59;;;;;;;20.77;12.67;;;5.80;99.90;;;;;;5052755;28;20767;-67
2023/03/07 01:25:25;;;;;;;15.60;10.53;;;5.90;99.90;;;;;;5045937;28;20469;-68
2023/03/07 01:27:51;;;;;;;17.67;12.43;;;5.90;99.90;;;;;;5047638;28;20191;-71
2023/03/07 01:30:17;;;;;;;19.37;11.43;;;5.90;99.90;;;;;;5049908;28;20236;-69
2023/03/07 01:32:43;;;;;;;16.30;10.40;;;5.90;99.90;;;;;;5048075;28;20442;-69
2023/03/07 01:35:08;;;;;;;17.17;11.30;;;5.90;99.90;;;;;;5047197;28;21110;-69
2023/03/07 01:37:34;;;;;;;22.00;11.70;;;5.80;99.90;;;;;;5044046;28;20211;-68
2023/03/07 01:40:00;;;;;;;19.50;10.87;;;5.80;99.90;;;;;;5048776;28;20274;-68
2023/03/07 01:42:29;;;;;;;15.93;9.60;;;5.70;99.90;;;;;;5056057;28;20202;-68
2023/03/07 01:45:03;;;;;;;16.77;10.30;;;5.50;99.90;;;;;;5042861;28;20265;-68
2023/03/07 01:47:29;;;;;;;21.17;12.23;;;5.40;99.90;;;;;;5046085;28;20603;-68
2023/03/07 01:49:55;;;;;;;18.33;13.13;;;5.40;99.90;;;;;;5046769;28;20520;-68
2023/03/07 01:52:34;;;;;;;19.90;12.47;;;5.30;99.90;;;;;;5051047;28;20175;-69
2023/03/07 01:55:17;;;;;;;17.93;11.67;;;5.30;99.90;;;;;;5048646;28;21054;-68
2023/03/07 01:57:45;;;;;;;22.33;12.43;;;5.20;99.90;;;;;;5044927;28;20469;-68
2023/03/07 02:00:29;;;;;;;16.20;10.63;;;5.30;99.90;;;;;;5046744;28;20901;-69
2023/03/07 02:03:01;;;;;;;20.10;12.93;;;5.30;99.90;;;;;;5051836;28;20421;-69
2023/03/07 02:05:58;;;;;;;21.03;12.20;;;5.20;99.90;;;;;;5053864;28;20439;-69
2023/03/07 02:08:27;;;;;;;17.53;11.00;;;5.30;99.90;;;;;;5040714;28;20445;-69
2023/03/07 02:10:53;;;;;;;20.87;12.17;;;5.20;99.90;;;;;;5045931;28;20473;-69
2023/03/07 02:13:18;;;;;;;22.27;13.67;;;5.00;99.90;;;;;;5044748;28;20486;-69
2023/03/07 02:15:44;;;;;;;21.80;10.63;;;5.00;99.90;;;;;;5045752;28;20267;-68
2023/03/07 02:18:16;;;;;;;20.67;13.10;;;5.00;99.90;;;;;;5052159;28;21320;-69
2023/03/07 02:20:59;;;;;;;18.17;8.77;;;4.90;99.90;;;;;;5052399;28;20215;-68
2023/03/07 02:23:38;;;;;;;19.97;12.60;;;4.90;99.90;;;;;;5053064;28;20445;-68
2023/03/07 02:26:12;;;;;;;19.93;13.30;;;4.80;99.90;;;;;;5048803;28;20502;-68
2023/03/07 02:28:41;;;;;;;20.80;12.50;;;4.80;99.90;;;;;;5047024;28;20450;-68
2023/03/07 02:31:09;;;;;;;18.07;12.80;;;4.90;99.90;;;;;;5050865;28;20422;-68
2023/03/07 02:33:35;;;;;;;19.00;12.30;;;4.90;99.90;;;;;;5054916;28;20433;-69
2023/03/07 02:36:05;;;;;;;23.43;13.47;;;5.00;99.90;;;;;;5049899;28;20461;-69
2023/03/07 02:38:35;;;;;;;24.43;13.83;;;5.00;99.90;;;;;;5050713;28;20202;-68
2023/03/07 02:41:01;;;;;;;19.83;12.13;;;5.00;99.90;;;;;;5052876;28;20501;-69
2023/03/07 02:43:27;;;;;;;21.73;12.67;;;5.00;99.90;;;;;;5053073;28;20547;-69
2023/03/07 02:45:52;;;;;;;19.93;12.80;;;5.10;99.90;;;;;;5049346;28;20449;-69
2023/03/07 02:48:18;;;;;;;19.43;12.90;;;5.10;99.90;;;;;;5045838;28;20173;-68
2023/03/07 02:50:43;;;;;;;19.87;12.73;;;5.00;99.90;;;;;;5052044;28;20180;-67
2023/03/07 02:53:09;;;;;;;21.77;11.77;;;5.00;99.90;;;;;;5053701;28;20180;-68
2023/03/07 02:55:35;;;;;;;17.10;12.77;;;5.00;99.90;;;;;;5053774;28;20198;-68
2023/03/07 02:58:00;;;;;;;20.60;12.40;;;5.10;99.90;;;;;;5054681;28;20671;-68
2023/03/07 03:00:26;;;;;;;19.87;12.77;;;5.10;99.90;;;;;;5055874;28;20207;-68
2023/03/07 03:02:51;;;;;;;21.57;13.83;;;5.20;99.90;;;;;;5054989;28;20671;-68
2023/03/07 03:05:17;;;;;;;20.30;12.30;;;5.30;99.90;;;;;;5054448;28;20278;-69
2023/03/07 03:07:42;;;;;;;16.53;11.10;;;5.30;99.90;;;;;;5049898;28;20230;-69
2023/03/07 03:10:08;;;;;;;20.53;13.17;;;5.30;99.90;;;;;;5054218;28;20183;-69
2023/03/07 03:12:34;;;;;;;18.27;12.50;;;5.30;99.90;;;;;;5055301;28;20627;-68
2023/03/07 03:15:00;;;;;;;17.80;11.97;;;5.20;99.90;;;;;;5053602;28;20465;-68
2023/03/07 03:17:25;;;;;;;18.53;12.10;;;5.30;99.90;;;;;;5055165;28;20207;-68
2023/03/07 03:19:51;;;;;;;18.20;11.90;;;5.30;99.90;;;;;;5056044;28;20700;-69
2023/03/07 03:22:16;;;;;;;18.00;11.73;;;5.30;99.90;;;;;;5056137;28;20779;-69
2023/03/07 03:24:42;;;;;;;18.57;11.90;;;5.30;99.90;;;;;;5052229;28;20183;-69
2023/03/07 03:27:08;;;;;;;17.33;11.23;;;5.30;99.90;;;;;;5052173;28;20225;-69
2023/03/07 03:29:34;;;;;;;16.53;11.40;;;5.40;99.90;;;;;;5053902;28;20195;-69
2023/03/07 03:32:00;;;;;;;21.20;12.03;;;5.30;99.90;;;;;;5054129;28;20432;-69
2023/03/07 03:34:26;;;;;;;17.17;11.97;;;5.30;99.90;;;;;;5048455;28;20912;-68
2023/03/07 03:36:51;;;;;;;20.53;11.90;;;5.30;99.90;;;;;;5051680;28;20460;-68
2023/03/07 03:39:17;;;;;;;17.60;11.10;;;5.30;99.90;;;;;;5056964;28;20453;-68
2023/03/07 03:41:42;;;;;;;19.13;11.67;;;5.30;99.90;;;;;;5052246;28;20252;-68
2023/03/07 03:44:08;;;;;;;16.57;12.13;;;5.30;99.90;;;;;;5052440;28;20180;-68
2023/03/07 03:46:35;;;;;;;18.50;12.90;;;5.30;99.90;;;;;;5055943;28;20203;-68
2023/03/07 03:49:01;;;;;;;13.37;9.53;;;5.20;99.90;;;;;;5048475;28;20425;-68
2023/03/07 03:51:26;;;;;;;19.17;12.00;;;5.20;99.90;;;;;;5052505;28;20429;-68
2023/03/07 03:53:52;;;;;;;14.90;10.80;;;5.30;99.90;;;;;;5053835;28;20183;-68
2023/03/07 03:56:20;;;;;;;15.80;9.37;;;5.30;99.90;;;;;;5055475;28;20654;-68
2023/03/07 03:58:47;;;;;;;18.13;10.73;;;5.30;99.90;;;;;;5051797;28;20605;-68
2023/03/07 04:01:13;;;;;;;17.97;11.87;;;5.30;99.90;;;;;;5048808;28;20488;-68
2023/03/07 04:03:41;;;;;;;17.17;12.50;;;5.30;99.90;;;;;;5052541;28;20446;-69
2023/03/07 04:06:12;;;;;;;16.73;10.77;;;5.30;99.90;;;;;;5050755;28;20202;-69
2023/03/07 04:08:39;;;;;;;21.80;11.90;;;5.40;99.90;;;;;;5053804;28;20520;-68
2023/03/07 04:11:04;;;;;;;15.80;11.10;;;5.40;99.90;;;;;;5052489;28;20438;-69
2023/03/07 04:13:31;;;;;;;14.07;7.73;;;5.40;99.90;;;;;;5055429;28;20806;-69
2023/03/07 04:15:57;;;;;;;14.03;11.00;;;5.30;99.90;;;;;;5048503;28;20183;-69
2023/03/07 04:18:23;;;;;;;14.47;9.60;;;5.20;99.90;;;;;;5056187;28;20428;-68
2023/03/07 04:20:50;;;;;;;16.27;11.30;;;5.30;99.90;;;;;;5054231;28;20218;-68
2023/03/07 04:23:16;;;;;;;16.63;11.60;;;5.30;99.90;;;;;;5054257;28;20527;-68
2023/03/07 04:25:54;;;;;;;16.77;10.30;;;5.30;99.90;;;;;;5054381;28;20433;-68
2023/03/07 04:28:21;;;;;;;13.90;9.63;;;5.30;99.90;;;;;;5048235;28;20412;-68
2023/03/07 04:30:48;;;;;;;21.20;10.97;;;5.40;99.90;;;;;;5049841;28;20442;-67
2023/03/07 04:33:15;;;;;;;17.43;10.60;;;5.40;99.90;;;;;;5052280;28;20513;-68
2023/03/07 04:35:41;;;;;;;16.67;10.47;;;5.40;99.90;;;;;;5052444;28;20519;-68
2023/03/07 04:38:07;;;;;;;19.37;10.33;;;5.30;99.90;;;;;;5053278;28;20456;-67
2023/03/07 04:40:34;;;;;;;17.33;10.37;;;5.30;99.90;;;;;;5052259;28;21518;-67
2023/03/07 04:42:59;;;;;;;17.93;10.90;;;5.40;99.90;;;;;;5051499;28;20190;-69
2023/03/07 04:45:25;;;;;;;16.73;10.73;;;5.40;99.90;;;;;;5054558;28;20413;-68
2023/03/07 04:47:51;;;;;;;16.90;9.97;;;5.40;99.90;;;;;;5049624;28;20221;-68
2023/03/07 04:50:17;;;;;;;15.30;10.83;;;5.50;99.90;;;;;;5051092;28;20221;-69
2023/03/07 04:52:43;;;;;;;17.47;9.87;;;5.50;99.90;;;;;;5053544;28;20179;-69
2023/03/07 04:55:09;;;;;;;14.53;10.47;;;5.50;99.90;;;;;;5049550;28;20438;-69
2023/03/07 04:57:35;;;;;;;13.17;9.40;;;5.50;99.90;;;;;;5055648;28;20297;-69
2023/03/07 05:00:01;;;;;;;17.23;10.53;;;5.50;99.90;;;;;;5048884;28;21768;-69
2023/03/07 05:02:26;;;;;;;16.87;11.40;;;5.50;99.90;;;;;;5049304;28;20213;-69
2023/03/07 05:04:52;;;;;;;14.13;9.40;;;5.50;99.90;;;;;;5049089;28;20413;-68
2023/03/07 05:07:17;;;;;;;14.67;10.10;;;5.50;99.90;;;;;;5052682;28;20718;-68
2023/03/07 05:09:43;;;;;;;16.33;10.70;;;5.60;99.90;;;;;;5052046;28;20175;-69
2023/03/07 05:12:09;;;;;;;12.90;8.93;;;5.60;99.90;;;;;;5052890;28;20214;-68
2023/03/07 05:14:34;;;;;;;13.50;10.37;;;5.60;99.90;;;;;;5054453;28;20617;-68
2023/03/07 05:17:00;;;;;;;13.73;9.87;;;5.50;99.90;;;;;;5046669;28;20461;-69
2023/03/07 05:19:26;;;;;;;16.40;9.67;;;5.60;99.90;;;;;;5053153;28;20211;-68
2023/03/07 05:21:51;;;;;;;13.60;9.23;;;5.60;99.90;;;;;;5049345;28;21051;-69
2023/03/07 05:24:17;;;;;;;14.70;9.37;;;5.60;99.90;;;;;;5051797;28;20370;-68
2023/03/07 05:26:43;;;;;;;15.63;10.67;;;5.60;99.90;;;;;;5048464;28;20266;-68
2023/03/07 05:29:08;;;;;;;17.17;10.70;;;5.70;99.90;;;;;;5048221;28;20437;-69
2023/03/07 05:31:35;;;;;;;12.87;9.43;;;5.70;99.90;;;;;;5052794;28;20189;-68
2023/03/07 05:34:00;;;;;;;13.80;9.17;;;5.60;99.90;;;;;;5049235;28;20196;-69
2023/03/07 05:36:26;;;;;;;15.50;9.57;;;5.70;99.90;;;;;;5048755;28;21405;-68
2023/03/07 05:38:55;;;;;;;17.00;10.17;;;5.60;99.90;;;;;;5049322;28;20501;-68
2023/03/07 05:41:21;;;;;;;16.10;9.70;;;5.70;99.90;;;;;;5050704;28;20630;-69
2023/03/07 05:43:46;;;;;;;16.73;11.20;;;5.60;99.90;;;;;;5049920;28;21151;-69
2023/03/07 05:46:12;;;;;;;16.50;10.30;;;5.70;99.90;;;;;;5048391;28;20492;-68
2023/03/07 05:48:37;;;;;;;16.87;9.80;;;5.70;99.90;;;;;;5047271;28;20550;-68
2023/03/07 05:51:03;;;;;;;13.53;9.83;;;5.70;99.90;;;;;;5047695;28;21147;-68
2023/03/07 05:53:30;;;;;;;15.67;10.17;;;5.70;99.90;;;;;;5051294;28;20760;-68
2023/03/07 05:55:55;;;;;;;14.40;7.60;;;5.70;99.90;;;;;;5045730;28;20435;-68
2023/03/07 05:58:21;;;;;;;13.90;9.97;;;5.70;99.90;;;;;;5050860;28;20514;-68
2023/03/07 06:00:48;;;;;;;14.87;9.30;;;5.70;99.90;;;;;;5048666;28;20708;-68
2023/03/07 06:03:13;;;;;;;13.60;8.67;;;5.80;99.90;;;;;;5047923;28;20176;-68
2023/03/07 06:05:39;;;;;;;14.40;9.53;;;5.80;99.90;;;;;;5049464;28;20438;-69
2023/03/07 06:08:05;;;;;;;13.23;9.17;;;5.90;99.90;;;;;;5050918;28;20210;-69
2023/03/07 06:10:32;;;;;;;15.83;8.60;;;5.80;99.90;;;;;;5051063;28;20314;-69
2023/03/07 06:12:58;;;;;;;15.10;9.53;;;5.80;99.90;;;;;;5048021;28;20437;-69
2023/03/07 06:15:23;;;;;;;14.33;10.07;;;5.80;99.90;;;;;;5048503;28;20555;-69
2023/03/07 06:17:51;;;;;;;14.87;9.33;;;5.80;99.90;;;;;;5046901;28;20696;-69
2023/03/07 06:20:19;;;;;;;15.53;10.20;;;5.80;99.90;;;;;;5051503;28;20191;-69
2023/03/07 06:22:45;;;;;;;12.37;9.00;;;5.80;99.90;;;;;;5046531;28;20438;-69
2023/03/07 06:25:11;;;;;;;15.30;9.80;;;5.90;99.90;;;;;;5049542;28;20484;-68
2023/03/07 06:27:39;;;;;;;13.27;8.70;;;5.90;99.90;;;;;;5056299;28;20486;-69
2023/03/07 06:30:06;;;;;;;16.10;10.57;;;5.90;99.90;;;;;;5054906;28;21535;-69
2023/03/07 06:32:31;;;;;;;14.80;10.03;;;5.90;99.90;;;;;;5055442;28;20451;-69
2023/03/07 06:34:58;;;;;;;15.30;10.57;;;5.80;99.90;;;;;;5053770;28;20437;-69
2023/03/07 06:37:23;;;;;;;11.93;9.00;;;5.80;99.90;;;;;;5055980;28;20210;-69
2023/03/07 06:39:49;;;;;;;12.30;8.90;;;5.90;99.90;;;;;;5051863;28;20458;-69
2023/03/07 06:42:14;;;;;;;15.30;9.90;;;5.90;99.90;;;;;;5055130;28;20997;-69
2023/03/07 06:44:40;;;;;;;15.93;10.17;;;6.00;99.90;;;;;;5052910;28;20191;-69
2023/03/07 06:47:06;;;;;;;11.53;9.60;;;6.00;99.90;;;;;;5047902;28;20219;-69
2023/03/07 06:49:31;;;;;;;17.83;10.37;;;6.10;99.90;;;;;;5054059;28;20190;-68
2023/03/07 06:51:57;;;;;;;14.70;9.60;;;6.00;99.90;;;;;;5051363;28;20187;-69
2023/03/07 06:54:22;;;;;;;17.97;10.17;;;6.10;99.90;;;;;;5052705;28;20194;-68
2023/03/07 06:56:48;;;;;;;11.57;9.40;;;6.00;99.90;;;;;;5055789;28;20289;-69
2023/03/07 06:59:14;;;;;;;14.47;8.80;;;6.00;99.90;;;;;;5050905;28;20228;-69
2023/03/07 07:01:40;;;;;;;12.30;9.30;;;6.00;99.90;;;;;;5050185;28;20184;-68
2023/03/07 07:04:06;;;;;;;13.23;9.53;;;6.10;99.90;;;;;;5051361;28;21843;-68
2023/03/07 07:06:31;;;;;;;17.83;10.37;;;6.20;99.90;;;;;;5052393;28;20818;-69
2023/03/07 07:08:58;;;;;;;11.93;9.67;;;6.20;99.90;;;;;;5050710;28;20535;-68
2023/03/07 07:11:25;;;;;;;13.33;8.47;;;6.20;99.90;;;;;;5053268;28;20206;-68
2023/03/07 07:13:51;;;;;;;13.77;9.60;;;6.20;99.90;;;;;;5050373;28;20430;-69
2023/03/07 07:16:17;;;;;;;13.40;8.77;;;6.20;99.90;;;;;;5056215;28;20820;-69
2023/03/07 07:18:43;;;;;;;13.10;8.17;;;6.20;99.90;;;;;;5055827;28;20181;-68
2023/03/07 07:21:09;;;;;;;15.63;9.90;;;6.20;99.90;;;;;;5052928;28;20473;-71
2023/03/07 07:23:35;;;;;;;14.90;9.57;;;6.30;99.90;;;;;;5055945;28;20462;-69
2023/03/07 07:26:01;;;;;;;13.33;9.23;;;6.30;99.90;;;;;;5056396;28;20512;-69
2023/03/07 07:28:26;;;;;;;12.40;9.67;;;6.30;99.90;;;;;;5047613;28;20189;-69
2023/03/07 07:30:52;;;;;;;14.33;9.50;;;6.40;99.90;;;;;;5050807;28;20943;-68
2023/03/07 07:33:18;;;;;;;13.43;9.40;;;6.50;99.90;;;;;;5053358;28;20187;-69
2023/03/07 07:35:44;;;;;;;10.87;8.27;;;6.40;99.90;;;;;;5052787;28;20187;-68
2023/03/07 07:38:11;;;;;;;14.30;8.83;;;6.40;99.90;;;;;;5048161;28;20454;-69
2023/03/07 07:40:36;;;;;;;16.60;9.13;;;6.40;99.90;;;;;;5055912;28;20219;-69
2023/03/07 07:43:02;;;;;;;12.53;8.47;;;6.40;99.90;;;;;;5053860;28;20418;-68
2023/03/07 07:45:28;;;;;;;10.07;8.00;;;6.40;99.90;;;;;;5050075;28;20554;-68
2023/03/07 07:47:53;;;;;;;14.83;9.70;;;6.50;99.90;;;;;;5053239;28;20207;-68
2023/03/07 07:50:20;;;;;;;13.60;8.50;;;6.50;99.90;;;;;;5051982;28;20183;-70
2023/03/07 07:52:46;;;;;;;18.87;9.90;;;6.60;99.90;;;;;;5052341;28;20191;-67
2023/03/07 07:55:13;;;;;;;12.40;9.20;;;6.50;99.90;;;;;;5051506;28;20465;-67
2023/03/07 07:57:39;;;;;;;11.20;9.07;;;6.60;99.90;;;;;;5054446;28;20488;-67
2023/03/07 08:00:06;;;;;;;11.90;8.47;;;6.60;99.90;;;;;;5051234;28;20849;-67
2023/03/07 08:02:34;;;;;;;12.63;8.90;;;6.60;99.90;;;;;;5050192;28;21186;-67
2023/03/07 08:04:59;;;;;;;14.33;9.10;;;6.70;99.90;;;;;;5049603;28;20528;-66
2023/03/07 08:07:25;;;;;;;12.90;9.00;;;6.80;99.90;;;;;;5042746;28;20552;-69
2023/03/07 08:09:50;;;;;;;12.80;8.53;;;6.90;99.90;;;;;;5047917;28;20198;-70
2023/03/07 08:12:16;;;;;;;15.63;10.07;;;7.00;99.90;;;;;;5051713;28;20194;-68
2023/03/07 08:14:41;;;;;;;12.77;9.70;;;7.00;99.90;;;;;;5052196;28;20601;-69
2023/03/07 08:17:07;;;;;;;14.27;9.40;;;6.90;99.90;;;;;;5041752;28;20210;-69
2023/03/07 08:19:33;;;;;;;15.33;9.53;;;7.00;99.90;;;;;;5051065;28;20204;-68
2023/03/07 08:21:59;;;;;;;10.80;9.03;;;7.10;99.90;;;;;;5047656;28;20180;-68
2023/03/07 08:24:25;;;;;;;12.67;9.30;;;7.00;99.90;;;;;;5052533;28;20179;-68
2023/03/07 08:26:51;;;;;;;14.83;9.33;;;7.10;99.90;;;;;;5047228;28;20496;-68
2023/03/07 08:29:16;;;;;;;18.20;9.30;;;7.10;99.90;;;;;;5045943;28;20183;-69
2023/03/07 08:31:44;;;;;;;11.40;9.00;;;7.00;99.90;;;;;;5052366;28;20276;-70
2023/03/07 08:34:10;;;;;;;15.43;9.17;;;7.00;99.90;;;;;;5044265;28;20184;-70
2023/03/07 08:36:36;;;;;;;13.63;9.50;;;7.10;99.90;;;;;;5050142;28;20442;-70
2023/03/07 08:39:02;;;;;;;12.43;8.30;;;7.10;99.90;;;;;;5052811;28;20617;-70
2023/03/07 08:41:27;;;;;;;13.37;8.33;;;7.10;99.90;;;;;;5053912;28;20505;-70
2023/03/07 08:43:53;;;;;;;12.87;9.63;;;7.20;99.90;;;;;;5051120;28;20179;-69
2023/03/07 08:46:19;;;;;;;12.10;9.10;;;7.10;99.90;;;;;;5049907;28;20223;-68
2023/03/07 08:48:45;;;;;;;13.73;9.37;;;7.10;99.90;;;;;;5046635;28;20219;-68
2023/03/07 08:51:14;;;;;;;14.47;9.00;;;7.10;99.90;;;;;;5050963;28;20469;-69
2023/03/07 08:53:41;;;;;;;15.33;9.27;;;7.10;99.90;;;;;;5053926;28;20172;-67
2023/03/07 08:56:13;;;;;;;15.10;9.60;;;7.20;99.90;;;;;;5050685;28;20475;-68
2023/03/07 08:58:39;;;;;;;13.00;8.70;;;7.10;99.90;;;;;;5051644;28;20421;-68
2023/03/07 09:01:06;;;;;;;17.43;8.87;;;7.10;99.90;;;;;;5047625;28;20483;-67
2023/03/07 09:03:33;;;;;;;11.00;8.40;;;7.10;99.90;;;;;;5051819;28;20178;-68
2023/03/07 09:05:59;;;;;;;18.23;8.90;;;7.10;99.90;;;;;;5048369;28;20445;-67
2023/03/07 09:08:24;;;;;;;17.40;8.87;;;7.10;99.90;;;;;;5049197;28;21165;-68
2023/03/07 09:10:50;;;;;;;15.30;9.37;;;7.00;99.90;;;;;;5048123;28;20352;-71
2023/03/07 09:13:17;;;;;;;14.40;9.53;;;7.20;99.90;;;;;;5048630;28;20555;-68
2023/03/07 09:15:43;;;;;;;12.97;8.53;;;7.10;99.90;;;;;;5048539;28;20456;-69
2023/03/07 09:18:10;;;;;;;11.30;8.23;;;7.00;99.90;;;;;;5049656;28;20822;-69
2023/03/07 09:20:37;;;;;;;11.93;8.50;;;7.00;99.90;;;;;;5043076;28;20499;-69
2023/03/07 09:23:03;;;;;;;13.80;9.20;;;7.10;99.90;;;;;;5046468;28;20433;-67
2023/03/07 09:25:29;;;;;;;14.60;9.50;;;7.00;99.90;;;;;;5048489;28;20438;-68
2023/03/07 09:27:55;;;;;;;14.50;9.50;;;7.10;99.90;;;;;;5046849;28;20465;-67
2023/03/07 09:30:21;;;;;;;13.70;9.87;;;7.20;99.90;;;;;;5052281;28;20201;-68
2023/03/07 09:32:48;;;;;;;13.10;9.40;;;7.10;99.90;;;;;;5049825;28;20190;-68
2023/03/07 09:35:13;;;;;;;14.63;9.73;;;7.10;99.90;;;;;;5051226;28;20976;-67
2023/03/07 09:37:39;;;;;;;14.27;10.10;;;7.20;99.90;;;;;;5051847;28;20461;-68
2023/03/07 09:40:08;;;;;;;11.60;9.30;;;7.20;99.90;;;;;;5052263;28;20242;-68
2023/03/07 09:42:51;;;;;;;16.27;9.63;;;7.20;99.90;;;;;;5051466;28;20198;-67
2023/03/07 09:45:25;;;;;;;14.37;9.90;;;7.20;99.90;;;;;;5048172;28;20455;-70
2023/03/07 09:47:57;;;;;;;12.70;8.97;;;7.40;99.90;;;;;;5050259;28;20472;-69
2023/03/07 09:50:38;;;;;;;14.47;8.97;;;7.40;99.90;;;;;;5050643;28;20429;-69
2023/03/07 09:53:11;;;;;;;12.03;8.30;;;7.40;99.90;;;;;;5051244;28;20451;-68
2023/03/07 09:55:38;;;;;;;12.13;8.20;;;7.40;99.90;;;;;;5050659;28;20808;-68
2023/03/07 09:58:11;;;;;;;13.43;8.57;;;7.40;99.90;;;;;;5048894;28;20547;-69
2023/03/07 10:00:57;;;;;;;13.37;7.87;;;7.40;99.90;;;;;;5053338;28;20473;-69
2023/03/07 10:03:40;;;;;;;13.27;8.80;;;7.50;99.90;;;;;;5051869;28;20441;-69
2023/03/07 10:06:19;;;;;;;14.93;8.90;;;7.30;99.90;;;;;;5052089;28;20539;-67
2023/03/07 10:08:45;;;;;;;11.40;8.57;;;7.40;99.90;;;;;;5054434;28;20431;-67
2023/03/07 10:11:43;;;;;;;10.80;8.50;;;7.40;99.90;;;;;;5050762;28;20433;-69
2023/03/07 10:14:17;;;;;;;10.60;7.40;;;7.30;99.90;;;;;;5026158;28;20257;-68
2023/03/07 10:16:52;;;;;;;14.90;8.20;;;7.20;99.90;;;;;;5055436;28;20464;-69
2023/03/07 10:19:36;;;;;;;11.10;7.40;;;7.20;99.90;;;;;;5057458;28;20480;-69
2023/03/07 10:22:18;;;;;;;14.57;9.33;;;7.20;99.90;;;;;;5054489;28;20425;-67
2023/03/07 10:25:06;;;;;;;10.33;7.30;;;7.30;99.90;;;;;;5052012;28;20413;-66
2023/03/07 10:27:32;;;;;;;11.70;7.90;;;7.30;99.90;;;;;;5050626;28;21094;-66
2023/03/07 10:30:00;;;;;;;12.13;8.33;;;7.40;99.90;;;;;;5056195;28;20447;-68
2023/03/07 10:32:39;;;;;;;14.53;9.27;;;7.50;99.90;;;;;;5050403;28;20452;-69
2023/03/07 10:35:10;;;;;;;11.50;8.13;;;7.70;99.90;;;;;;5049456;28;20810;-67
2023/03/07 10:38:24;;;;;;;12.10;8.13;;;7.90;99.90;;;;;;5051576;28;20203;-67
2023/03/07 10:41:14;;;;;;;8.93;7.63;;;7.90;99.60;;;;;;4971735;28;20823;-67
2023/03/07 10:43:39;;;;;;;12.00;9.10;;;8.20;99.80;;;;;;4973535;28;20449;-66
2023/03/07 10:46:12;;;;;;;14.13;8.00;;;8.30;99.40;;;;;;5025994;28;20563;-68
2023/03/07 10:48:42;;;;;;;14.63;8.70;;;8.50;98.50;;;;;;5052331;28;20214;-68
2023/03/07 10:51:35;;;;;;;11.27;8.60;;;8.60;98.00;;;;;;5046417;28;20959;-69
2023/03/07 10:54:04;;;;;;;12.47;8.60;;;8.40;96.70;;;;;;5046691;28;20894;-68
2023/03/07 10:56:30;;;;;;;10.03;7.80;;;8.40;96.80;;;;;;5050901;28;20569;-71
2023/03/07 10:59:01;;;;;;;9.43;7.70;;;8.40;97.00;;;;;;5053021;28;20930;-71
2023/03/07 11:01:28;;;;;;;13.50;8.30;;;8.50;96.90;;;;;;5047961;28;20258;-69
2023/03/07 11:04:01;;;;;;;13.30;8.20;;;8.40;96.70;;;;;;5048368;28;20437;-68
2023/03/07 11:06:35;;;;;;;11.00;8.10;;;8.40;96.20;;;;;;5046207;28;20457;-68
2023/03/07 11:09:28;;;;;;;11.03;8.03;;;8.50;96.20;;;;;;5045451;28;20437;-69
2023/03/07 11:12:04;;;;;;;14.27;7.80;;;8.20;95.90;;;;;;5042392;28;20529;-68
2023/03/07 11:14:30;;;;;;;11.70;7.93;;;8.10;96.20;;;;;;5054009;28;20451;-69
2023/03/07 11:17:00;;;;;;;13.00;8.57;;;8.00;96.40;;;;;;5047447;28;20466;-68
2023/03/07 11:19:42;;;;;;;12.20;8.13;;;8.10;96.40;;;;;;5050112;28;21342;-69
2023/03/07 11:22:22;;;;;;;13.03;7.70;;;8.10;96.30;;;;;;5050919;28;20532;-68
2023/03/07 11:25:00;;;;;;;12.93;7.70;;;8.20;96.30;;;;;;5053312;28;20512;-68
2023/03/07 11:27:36;;;;;;;13.80;9.00;;;8.30;96.50;;;;;;5048822;28;20456;-68
2023/03/07 11:30:14;;;;;;;13.67;8.73;;;8.50;96.10;;;;;;5046499;28;20790;-68
2023/03/07 11:32:44;;;;;;;14.00;7.63;;;8.60;95.70;;;;;;5044454;28;20556;-68
2023/03/07 11:35:26;;;;;;;9.60;7.43;;;8.50;95.20;;;;;;5040625;28;20536;-70
2023/03/07 11:38:11;;;;;;;8.87;7.30;;;8.50;95.20;;;;;;5043873;28;20462;-70
2023/03/07 11:40:43;;;;;;;15.23;7.80;;;8.40;94.60;;;;;;5049298;28;20465;-69
2023/03/07 11:43:20;;;;;;;11.40;8.97;;;8.50;94.90;;;;;;5046035;28;20469;-70
2023/03/07 11:46:12;;;;;;;11.97;7.17;;;8.50;94.70;;;;;;5044041;28;20981;-69
2023/03/07 11:49:08;;;;;;;8.93;7.73;;;8.50;94.40;;;;;;5046010;28;20445;-66
2023/03/07 11:52:01;;;;;;;9.83;7.50;;;8.60;94.40;;;;;;5050986;28;20783;-68
2023/03/07 11:54:49;;;;;;;11.60;7.63;;;8.50;94.20;;;;;;5049731;28;20622;-68
2023/03/07 11:57:20;;;;;;;13.10;7.43;;;8.50;93.70;;;;;;5044856;28;20978;-67
2023/03/07 12:00:18;;;;;;;10.03;6.87;;;8.60;94.00;;;;;;5045506;28;20457;-68
2023/03/07 12:03:16;;;;;;;9.90;7.03;;;8.60;94.10;;;;;;5045563;28;20474;-67
2023/03/07 12:06:07;;;;;;;11.80;7.57;;;8.60;93.70;;;;;;5048010;28;20980;-69
2023/03/07 12:08:38;;;;;;;12.27;7.10;;;8.60;93.80;;;;;;5045708;28;20887;-71
2023/03/07 12:11:16;;;;;;;9.40;6.90;;;8.70;94.00;;;;;;5041669;28;20446;-71
2023/03/07 12:13:48;;;;;;;16.27;7.07;;;8.50;93.80;;;;;;5047467;28;20436;-69
2023/03/07 12:16:32;;;;;;;9.93;8.13;;;8.60;94.00;;;;;;5040059;28;20472;-70
2023/03/07 12:19:25;;;;;;;11.23;8.07;;;8.40;94.10;;;;;;5045608;28;20438;-69
2023/03/07 12:22:21;;;;;;;9.10;7.83;;;8.40;94.30;;;;;;5044895;28;20450;-70
2023/03/07 12:25:01;;;;;;;18.23;8.70;;;8.40;94.50;;;;;;5046692;28;20933;-71
2023/03/07 12:27:42;;;;;;;14.00;8.10;;;8.40;94.60;;;;;;5045285;28;20507;-67
2023/03/07 12:30:19;;;;;;;10.60;7.73;;;8.40;94.30;;;;;;5045151;28;20727;-69
2023/03/07 12:32:46;;;;;;;15.87;8.73;;;8.20;94.50;;;;;;5045290;28;20441;-69
2023/03/07 12:35:23;;;;;;;11.20;7.80;;;8.30;94.50;;;;;;5043574;28;20465;-67
2023/03/07 12:37:59;;;;;;;9.93;8.57;;;8.30;94.70;;;;;;5045532;28;20489;-67
2023/03/07 12:40:34;;;;;;;11.57;7.60;;;8.40;94.60;;;;;;5048474;28;20828;-68
2023/03/07 12:43:15;;;;;;;13.17;7.33;;;8.30;94.10;;;;;;5044146;28;21053;-66
2023/03/07 12:45:49;;;;;;;10.10;7.13;;;8.30;94.50;;;;;;5043258;28;20437;-67
2023/03/07 12:48:33;;;;;;;9.97;6.90;;;8.30;94.20;;;;;;5047891;28;20938;-67
2023/03/07 12:51:32;;;;;;;9.73;6.70;;;8.40;94.10;;;;;;5042600;28;20437;-67
2023/03/07 12:54:29;;;;;;;9.00;6.80;;;8.50;93.80;;;;;;5047868;28;20445;-68